sensor_id;sensor_type;location;lat;lon;timestamp;temperature;humidity
22544;DHT22;11438;52.044;8.716;2022-08-01T00:00:23;24.00;93.90
22544;DHT22;11438;52.044;8.716;2022-08-01T00:02:49;24.00;94.00
22544;DHT22;11438;52.044;8.716;2022-08-01T00:05:14;24.00;94.00
22544;DHT22;11438;52.044;8.716;2022-08-01T00:07:40;24.00;94.00
22544;DHT22;11438;52.044;8.716;2022-08-01T00:10:08;24.00;94.10
22544;DHT22;11438;52.044;8.716;2022-08-01T00:12:34;24.00;94.10
22544;DHT22;11438;52.044;8.716;2022-08-01T00:14:59;24.00;94.10
22544;DHT22;11438;52.044;8.716;2022-08-01T00:17:25;23.90;94.10
22544;DHT22;11438;52.044;8.716;2022-08-01T00:19:50;23.90;94.10
22544;DHT22;11438;52.044;8.716;2022-08-01T00:22:17;24.00;94.20
22544;DHT22;11438;52.044;8.716;2022-08-01T00:24:42;23.90;94.10
22544;DHT22;11438;52.044;8.716;2022-08-01T00:27:08;23.90;94.10
22544;DHT22;11438;52.044;8.716;2022-08-01T00:29:33;23.90;94.10
22544;DHT22;11438;52.044;8.716;2022-08-01T00:31:59;23.90;94.20
22544;DHT22;11438;52.044;8.716;2022-08-01T00:34:24;23.90;94.20
22544;DHT22;11438;52.044;8.716;2022-08-01T00:36:49;23.90;94.20
22544;DHT22;11438;52.044;8.716;2022-08-01T00:39:15;23.90;94.20
22544;DHT22;11438;52.044;8.716;2022-08-01T00:41:40;23.90;94.20
22544;DHT22;11438;52.044;8.716;2022-08-01T00:44:06;23.80;94.20
22544;DHT22;11438;52.044;8.716;2022-08-01T00:46:32;23.80;94.10
22544;DHT22;11438;52.044;8.716;2022-08-01T00:48:59;23.90;94.10
22544;DHT22;11438;52.044;8.716;2022-08-01T00:51:25;23.80;94.10
22544;DHT22;11438;52.044;8.716;2022-08-01T00:53:51;23.80;94.10
22544;DHT22;11438;52.044;8.716;2022-08-01T00:56:17;23.80;94.10
22544;DHT22;11438;52.044;8.716;2022-08-01T00:58:43;23.80;94.10
22544;DHT22;11438;52.044;8.716;2022-08-01T01:01:09;23.80;94.10
22544;DHT22;11438;52.044;8.716;2022-08-01T01:03:35;23.80;94.10
22544;DHT22;11438;52.044;8.716;2022-08-01T01:12:44;23.80;94.10
22544;DHT22;11438;52.044;8.716;2022-08-01T01:15:18;23.80;94.10
22544;DHT22;11438;52.044;8.716;2022-08-01T01:18:09;23.80;94.10
22544;DHT22;11438;52.044;8.716;2022-08-01T01:20:41;23.80;94.10
22544;DHT22;11438;52.044;8.716;2022-08-01T01:29:02;23.70;94.10
22544;DHT22;11438;52.044;8.716;2022-08-01T01:31:32;23.70;94.10
22544;DHT22;11438;52.044;8.716;2022-08-01T01:34:02;23.70;94.10
22544;DHT22;11438;52.044;8.716;2022-08-01T01:36:30;23.70;94.20
22544;DHT22;11438;52.044;8.716;2022-08-01T01:38:56;23.70;94.10
22544;DHT22;11438;52.044;8.716;2022-08-01T01:41:23;23.70;94.10
22544;DHT22;11438;52.044;8.716;2022-08-01T01:43:49;23.60;94.20
22544;DHT22;11438;52.044;8.716;2022-08-01T01:46:19;23.70;94.40
22544;DHT22;11438;52.044;8.716;2022-08-01T01:48:48;23.60;94.30
22544;DHT22;11438;52.044;8.716;2022-08-01T01:51:15;23.60;94.30
22544;DHT22;11438;52.044;8.716;2022-08-01T01:53:41;23.60;94.40
22544;DHT22;11438;52.044;8.716;2022-08-01T01:56:09;23.60;94.40
22544;DHT22;11438;52.044;8.716;2022-08-01T01:58:35;23.50;94.40
22544;DHT22;11438;52.044;8.716;2022-08-01T02:01:04;23.50;94.40
22544;DHT22;11438;52.044;8.716;2022-08-01T02:03:32;23.50;94.40
22544;DHT22;11438;52.044;8.716;2022-08-01T02:06:02;23.50;94.40
22544;DHT22;11438;52.044;8.716;2022-08-01T02:08:29;23.40;94.50
22544;DHT22;11438;52.044;8.716;2022-08-01T02:10:55;23.40;94.50
22544;DHT22;11438;52.044;8.716;2022-08-01T02:13:40;23.40;94.60
22544;DHT22;11438;52.044;8.716;2022-08-01T02:16:07;23.40;94.60
22544;DHT22;11438;52.044;8.716;2022-08-01T02:18:33;23.40;94.60
22544;DHT22;11438;52.044;8.716;2022-08-01T02:21:00;23.40;94.70
22544;DHT22;11438;52.044;8.716;2022-08-01T02:23:32;23.40;94.80
22544;DHT22;11438;52.044;8.716;2022-08-01T02:26:00;23.40;94.70
22544;DHT22;11438;52.044;8.716;2022-08-01T02:28:32;23.30;94.70
22544;DHT22;11438;52.044;8.716;2022-08-01T02:31:06;23.30;94.70
22544;DHT22;11438;52.044;8.716;2022-08-01T02:33:43;23.30;94.70
22544;DHT22;11438;52.044;8.716;2022-08-01T02:36:11;23.20;94.70
22544;DHT22;11438;52.044;8.716;2022-08-01T02:38:40;23.20;94.60
22544;DHT22;11438;52.044;8.716;2022-08-01T02:41:13;23.20;94.70
22544;DHT22;11438;52.044;8.716;2022-08-01T02:43:45;23.30;94.80
22544;DHT22;11438;52.044;8.716;2022-08-01T02:46:20;23.20;94.70
22544;DHT22;11438;52.044;8.716;2022-08-01T02:48:47;23.20;94.70
22544;DHT22;11438;52.044;8.716;2022-08-01T02:51:15;23.30;94.80
22544;DHT22;11438;52.044;8.716;2022-08-01T02:53:42;23.20;94.80
22544;DHT22;11438;52.044;8.716;2022-08-01T02:56:08;23.20;94.80
22544;DHT22;11438;52.044;8.716;2022-08-01T02:58:36;23.20;94.80
22544;DHT22;11438;52.044;8.716;2022-08-01T03:01:04;23.20;94.90
22544;DHT22;11438;52.044;8.716;2022-08-01T03:03:31;23.10;94.90
22544;DHT22;11438;52.044;8.716;2022-08-01T03:05:58;23.10;94.90
22544;DHT22;11438;52.044;8.716;2022-08-01T03:08:25;23.10;94.90
22544;DHT22;11438;52.044;8.716;2022-08-01T03:10:51;23.10;95.00
22544;DHT22;11438;52.044;8.716;2022-08-01T03:13:18;23.10;95.00
22544;DHT22;11438;52.044;8.716;2022-08-01T03:15:45;23.10;95.10
22544;DHT22;11438;52.044;8.716;2022-08-01T03:18:14;23.10;95.00
22544;DHT22;11438;52.044;8.716;2022-08-01T03:20:41;23.10;95.20
22544;DHT22;11438;52.044;8.716;2022-08-01T03:23:10;23.10;95.10
22544;DHT22;11438;52.044;8.716;2022-08-01T03:25:39;23.10;95.20
22544;DHT22;11438;52.044;8.716;2022-08-01T03:28:07;23.10;95.20
22544;DHT22;11438;52.044;8.716;2022-08-01T03:30:34;23.10;95.20
22544;DHT22;11438;52.044;8.716;2022-08-01T03:33:01;23.10;95.20
22544;DHT22;11438;52.044;8.716;2022-08-01T03:35:35;23.10;95.20
22544;DHT22;11438;52.044;8.716;2022-08-01T03:38:02;23.00;95.20
22544;DHT22;11438;52.044;8.716;2022-08-01T03:40:35;23.10;95.10
22544;DHT22;11438;52.044;8.716;2022-08-01T03:43:07;23.00;95.20
22544;DHT22;11438;52.044;8.716;2022-08-01T03:45:38;23.00;95.20
22544;DHT22;11438;52.044;8.716;2022-08-01T03:48:09;23.00;95.20
22544;DHT22;11438;52.044;8.716;2022-08-01T03:50:37;23.00;95.20
22544;DHT22;11438;52.044;8.716;2022-08-01T03:53:06;23.00;95.20
22544;DHT22;11438;52.044;8.716;2022-08-01T03:55:36;23.00;95.20
22544;DHT22;11438;52.044;8.716;2022-08-01T03:58:03;23.00;95.20
22544;DHT22;11438;52.044;8.716;2022-08-01T04:00:29;23.00;95.20
22544;DHT22;11438;52.044;8.716;2022-08-01T04:02:55;23.00;95.20
22544;DHT22;11438;52.044;8.716;2022-08-01T04:05:21;23.00;95.20
22544;DHT22;11438;52.044;8.716;2022-08-01T04:07:48;23.00;95.10
22544;DHT22;11438;52.044;8.716;2022-08-01T04:10:21;23.00;95.20
22544;DHT22;11438;52.044;8.716;2022-08-01T04:12:47;23.00;95.10
22544;DHT22;11438;52.044;8.716;2022-08-01T04:15:12;23.00;95.10
22544;DHT22;11438;52.044;8.716;2022-08-01T04:17:39;23.00;95.10
22544;DHT22;11438;52.044;8.716;2022-08-01T04:20:05;23.00;95.20
22544;DHT22;11438;52.044;8.716;2022-08-01T04:22:30;23.10;95.20
22544;DHT22;11438;52.044;8.716;2022-08-01T04:24:57;23.00;95.20
22544;DHT22;11438;52.044;8.716;2022-08-01T04:27:28;23.00;95.20
22544;DHT22;11438;52.044;8.716;2022-08-01T04:29:57;23.00;95.30
22544;DHT22;11438;52.044;8.716;2022-08-01T04:32:26;23.00;95.30
22544;DHT22;11438;52.044;8.716;2022-08-01T04:34:54;23.00;95.20
22544;DHT22;11438;52.044;8.716;2022-08-01T04:37:22;23.00;95.30
22544;DHT22;11438;52.044;8.716;2022-08-01T04:39:50;23.00;95.20
22544;DHT22;11438;52.044;8.716;2022-08-01T04:42:17;23.00;95.30
22544;DHT22;11438;52.044;8.716;2022-08-01T04:44:43;23.00;95.20
22544;DHT22;11438;52.044;8.716;2022-08-01T04:47:10;23.00;95.20
22544;DHT22;11438;52.044;8.716;2022-08-01T04:49:37;23.10;95.20
22544;DHT22;11438;52.044;8.716;2022-08-01T04:52:03;23.10;95.30
22544;DHT22;11438;52.044;8.716;2022-08-01T04:54:30;23.10;95.20
22544;DHT22;11438;52.044;8.716;2022-08-01T04:56:56;23.10;95.20
22544;DHT22;11438;52.044;8.716;2022-08-01T04:59:29;23.10;95.20
22544;DHT22;11438;52.044;8.716;2022-08-01T05:04:36;23.10;95.20
22544;DHT22;11438;52.044;8.716;2022-08-01T05:07:03;23.10;95.30
22544;DHT22;11438;52.044;8.716;2022-08-01T05:09:29;23.10;95.30
22544;DHT22;11438;52.044;8.716;2022-08-01T05:11:56;23.10;95.40
22544;DHT22;11438;52.044;8.716;2022-08-01T05:14:24;23.20;95.30
22544;DHT22;11438;52.044;8.716;2022-08-01T05:16:49;23.20;95.20
22544;DHT22;11438;52.044;8.716;2022-08-01T05:19:15;23.20;95.30
22544;DHT22;11438;52.044;8.716;2022-08-01T05:21:40;23.20;95.30
22544;DHT22;11438;52.044;8.716;2022-08-01T05:24:06;23.20;95.40
22544;DHT22;11438;52.044;8.716;2022-08-01T05:26:31;23.20;95.40
22544;DHT22;11438;52.044;8.716;2022-08-01T05:28:58;23.20;95.40
22544;DHT22;11438;52.044;8.716;2022-08-01T05:31:24;23.30;95.30
22544;DHT22;11438;52.044;8.716;2022-08-01T05:33:49;23.20;95.20
22544;DHT22;11438;52.044;8.716;2022-08-01T05:36:15;23.30;95.30
22544;DHT22;11438;52.044;8.716;2022-08-01T05:38:40;23.30;95.20
22544;DHT22;11438;52.044;8.716;2022-08-01T05:41:06;23.30;95.30
22544;DHT22;11438;52.044;8.716;2022-08-01T05:43:31;23.30;95.30
22544;DHT22;11438;52.044;8.716;2022-08-01T05:45:57;23.30;95.20
22544;DHT22;11438;52.044;8.716;2022-08-01T05:48:23;23.30;95.30
22544;DHT22;11438;52.044;8.716;2022-08-01T05:50:49;23.30;95.40
22544;DHT22;11438;52.044;8.716;2022-08-01T05:53:15;23.40;95.40
22544;DHT22;11438;52.044;8.716;2022-08-01T05:55:40;23.40;95.40
22544;DHT22;11438;52.044;8.716;2022-08-01T05:58:06;23.40;95.40
22544;DHT22;11438;52.044;8.716;2022-08-01T06:00:31;23.40;95.40
22544;DHT22;11438;52.044;8.716;2022-08-01T06:02:57;23.40;95.40
22544;DHT22;11438;52.044;8.716;2022-08-01T06:05:22;23.40;95.30
22544;DHT22;11438;52.044;8.716;2022-08-01T06:07:48;23.40;95.30
22544;DHT22;11438;52.044;8.716;2022-08-01T06:10:13;23.40;95.50
22544;DHT22;11438;52.044;8.716;2022-08-01T06:12:39;23.40;95.90
22544;DHT22;11438;52.044;8.716;2022-08-01T06:15:06;23.40;95.70
22544;DHT22;11438;52.044;8.716;2022-08-01T06:17:32;23.40;95.70
22544;DHT22;11438;52.044;8.716;2022-08-01T06:19:57;23.50;95.50
22544;DHT22;11438;52.044;8.716;2022-08-01T06:22:23;23.50;95.50
22544;DHT22;11438;52.044;8.716;2022-08-01T06:24:48;23.50;95.50
22544;DHT22;11438;52.044;8.716;2022-08-01T06:27:14;23.50;95.40
22544;DHT22;11438;52.044;8.716;2022-08-01T06:29:39;23.50;95.40
22544;DHT22;11438;52.044;8.716;2022-08-01T06:32:05;23.60;95.50
22544;DHT22;11438;52.044;8.716;2022-08-01T06:34:31;23.60;95.40
22544;DHT22;11438;52.044;8.716;2022-08-01T06:36:57;23.60;95.10
22544;DHT22;11438;52.044;8.716;2022-08-01T06:39:22;23.60;95.00
22544;DHT22;11438;52.044;8.716;2022-08-01T06:41:48;23.60;95.00
22544;DHT22;11438;52.044;8.716;2022-08-01T06:44:13;23.70;94.90
22544;DHT22;11438;52.044;8.716;2022-08-01T06:46:39;23.70;95.00
22544;DHT22;11438;52.044;8.716;2022-08-01T06:49:05;23.70;94.90
22544;DHT22;11438;52.044;8.716;2022-08-01T06:51:30;23.70;94.80
22544;DHT22;11438;52.044;8.716;2022-08-01T06:53:56;23.70;94.80
22544;DHT22;11438;52.044;8.716;2022-08-01T06:56:21;23.70;94.80
22544;DHT22;11438;52.044;8.716;2022-08-01T06:58:47;23.70;94.70
22544;DHT22;11438;52.044;8.716;2022-08-01T07:01:13;23.70;94.60
22544;DHT22;11438;52.044;8.716;2022-08-01T07:03:39;23.70;94.60
22544;DHT22;11438;52.044;8.716;2022-08-01T07:06:04;23.70;94.30
22544;DHT22;11438;52.044;8.716;2022-08-01T07:08:30;23.70;94.20
22544;DHT22;11438;52.044;8.716;2022-08-01T07:10:56;23.70;94.00
22544;DHT22;11438;52.044;8.716;2022-08-01T07:13:27;23.60;94.00
22544;DHT22;11438;52.044;8.716;2022-08-01T07:15:53;23.60;94.20
22544;DHT22;11438;52.044;8.716;2022-08-01T07:18:19;23.60;94.30
22544;DHT22;11438;52.044;8.716;2022-08-01T07:20:44;23.50;94.20
22544;DHT22;11438;52.044;8.716;2022-08-01T07:23:12;23.50;94.20
22544;DHT22;11438;52.044;8.716;2022-08-01T07:25:37;23.50;94.30
22544;DHT22;11438;52.044;8.716;2022-08-01T07:28:03;23.50;94.20
22544;DHT22;11438;52.044;8.716;2022-08-01T07:30:29;23.50;94.20
22544;DHT22;11438;52.044;8.716;2022-08-01T07:32:54;23.50;94.10
22544;DHT22;11438;52.044;8.716;2022-08-01T07:35:20;23.50;93.90
22544;DHT22;11438;52.044;8.716;2022-08-01T07:37:45;23.60;94.00
22544;DHT22;11438;52.044;8.716;2022-08-01T07:40:11;23.60;94.10
22544;DHT22;11438;52.044;8.716;2022-08-01T07:42:36;23.60;93.90
22544;DHT22;11438;52.044;8.716;2022-08-01T07:45:02;23.60;94.00
22544;DHT22;11438;52.044;8.716;2022-08-01T07:47:27;23.60;94.20
22544;DHT22;11438;52.044;8.716;2022-08-01T07:49:59;23.60;94.40
22544;DHT22;11438;52.044;8.716;2022-08-01T07:52:25;23.60;94.60
22544;DHT22;11438;52.044;8.716;2022-08-01T07:54:52;23.60;94.70
22544;DHT22;11438;52.044;8.716;2022-08-01T07:57:17;23.60;95.10
22544;DHT22;11438;52.044;8.716;2022-08-01T07:59:43;23.70;94.60
22544;DHT22;11438;52.044;8.716;2022-08-01T08:02:08;23.70;94.80
22544;DHT22;11438;52.044;8.716;2022-08-01T08:04:34;23.80;94.80
22544;DHT22;11438;52.044;8.716;2022-08-01T08:06:59;23.80;94.90
22544;DHT22;11438;52.044;8.716;2022-08-01T08:09:25;23.90;94.80
22544;DHT22;11438;52.044;8.716;2022-08-01T08:11:51;24.00;94.70
22544;DHT22;11438;52.044;8.716;2022-08-01T08:14:17;24.10;94.60
22544;DHT22;11438;52.044;8.716;2022-08-01T08:16:43;24.20;94.30
22544;DHT22;11438;52.044;8.716;2022-08-01T08:19:09;24.30;94.60
22544;DHT22;11438;52.044;8.716;2022-08-01T08:21:34;24.40;94.20
22544;DHT22;11438;52.044;8.716;2022-08-01T08:24:00;24.50;94.10
22544;DHT22;11438;52.044;8.716;2022-08-01T08:26:44;24.50;94.00
22544;DHT22;11438;52.044;8.716;2022-08-01T08:29:09;24.60;93.90
22544;DHT22;11438;52.044;8.716;2022-08-01T08:31:35;24.70;93.60
22544;DHT22;11438;52.044;8.716;2022-08-01T08:34:00;24.80;93.90
22544;DHT22;11438;52.044;8.716;2022-08-01T08:36:26;24.80;93.90
22544;DHT22;11438;52.044;8.716;2022-08-01T08:38:52;24.90;93.20
22544;DHT22;11438;52.044;8.716;2022-08-01T08:41:17;24.90;93.20
22544;DHT22;11438;52.044;8.716;2022-08-01T08:43:43;25.00;92.70
22544;DHT22;11438;52.044;8.716;2022-08-01T08:46:09;25.00;92.70
22544;DHT22;11438;52.044;8.716;2022-08-01T08:48:37;25.00;92.80
22544;DHT22;11438;52.044;8.716;2022-08-01T08:51:04;25.10;92.60
22544;DHT22;11438;52.044;8.716;2022-08-01T08:53:31;25.20;92.40
22544;DHT22;11438;52.044;8.716;2022-08-01T08:55:59;25.20;92.50
22544;DHT22;11438;52.044;8.716;2022-08-01T08:58:26;25.20;92.30
22544;DHT22;11438;52.044;8.716;2022-08-01T09:00:53;25.20;91.60
22544;DHT22;11438;52.044;8.716;2022-08-01T09:03:19;25.20;92.00
22544;DHT22;11438;52.044;8.716;2022-08-01T09:05:44;25.30;91.90
22544;DHT22;11438;52.044;8.716;2022-08-01T09:08:10;25.20;91.60
22544;DHT22;11438;52.044;8.716;2022-08-01T09:10:35;25.20;91.70
22544;DHT22;11438;52.044;8.716;2022-08-01T09:13:11;25.20;91.40
22544;DHT22;11438;52.044;8.716;2022-08-01T09:15:47;25.20;91.00
22544;DHT22;11438;52.044;8.716;2022-08-01T09:21:08;25.10;90.90
22544;DHT22;11438;52.044;8.716;2022-08-01T09:23:39;25.00;90.90
22544;DHT22;11438;52.044;8.716;2022-08-01T09:26:15;24.90;90.70
22544;DHT22;11438;52.044;8.716;2022-08-01T09:28:41;24.90;90.80
22544;DHT22;11438;52.044;8.716;2022-08-01T09:31:12;24.80;90.80
22544;DHT22;11438;52.044;8.716;2022-08-01T09:36:17;24.80;91.20
22544;DHT22;11438;52.044;8.716;2022-08-01T09:38:43;24.80;91.20
22544;DHT22;11438;52.044;8.716;2022-08-01T09:41:09;24.80;91.20
22544;DHT22;11438;52.044;8.716;2022-08-01T09:43:36;24.80;91.60
22544;DHT22;11438;52.044;8.716;2022-08-01T09:46:10;24.80;91.20
22544;DHT22;11438;52.044;8.716;2022-08-01T09:48:39;24.80;91.20
22544;DHT22;11438;52.044;8.716;2022-08-01T09:51:32;24.90;91.20
22544;DHT22;11438;52.044;8.716;2022-08-01T09:53:59;25.00;91.30
22544;DHT22;11438;52.044;8.716;2022-08-01T09:56:25;25.00;91.50
22544;DHT22;11438;52.044;8.716;2022-08-01T09:58:57;25.00;90.90
22544;DHT22;11438;52.044;8.716;2022-08-01T10:01:23;25.10;90.50
22544;DHT22;11438;52.044;8.716;2022-08-01T10:04:07;25.10;90.60
22544;DHT22;11438;52.044;8.716;2022-08-01T10:06:33;25.00;90.60
22544;DHT22;11438;52.044;8.716;2022-08-01T10:08:58;25.10;90.70
22544;DHT22;11438;52.044;8.716;2022-08-01T10:11:24;25.10;90.30
22544;DHT22;11438;52.044;8.716;2022-08-01T10:13:50;25.10;90.20
22544;DHT22;11438;52.044;8.716;2022-08-01T10:16:16;25.10;90.30
22544;DHT22;11438;52.044;8.716;2022-08-01T10:18:44;25.20;90.50
22544;DHT22;11438;52.044;8.716;2022-08-01T10:21:10;25.20;90.80
22544;DHT22;11438;52.044;8.716;2022-08-01T10:23:37;25.20;90.40
22544;DHT22;11438;52.044;8.716;2022-08-01T10:26:05;25.30;90.50
22544;DHT22;11438;52.044;8.716;2022-08-01T10:28:31;25.30;90.80
22544;DHT22;11438;52.044;8.716;2022-08-01T10:30:59;25.30;90.60
22544;DHT22;11438;52.044;8.716;2022-08-01T10:33:25;25.30;90.10
22544;DHT22;11438;52.044;8.716;2022-08-01T10:35:51;25.40;89.90
22544;DHT22;11438;52.044;8.716;2022-08-01T10:38:17;25.40;90.10
22544;DHT22;11438;52.044;8.716;2022-08-01T10:40:44;25.50;90.10
22544;DHT22;11438;52.044;8.716;2022-08-01T10:43:12;25.40;89.60
22544;DHT22;11438;52.044;8.716;2022-08-01T10:45:40;25.40;88.30
22544;DHT22;11438;52.044;8.716;2022-08-01T10:50:47;25.40;88.30
22544;DHT22;11438;52.044;8.716;2022-08-01T10:53:14;25.40;87.80
22544;DHT22;11438;52.044;8.716;2022-08-01T10:58:27;25.40;86.50
22544;DHT22;11438;52.044;8.716;2022-08-01T11:06:25;25.40;86.80
22544;DHT22;11438;52.044;8.716;2022-08-01T11:08:53;25.40;87.70
22544;DHT22;11438;52.044;8.716;2022-08-01T11:11:20;25.40;88.10
22544;DHT22;11438;52.044;8.716;2022-08-01T11:14:01;25.50;88.60
22544;DHT22;11438;52.044;8.716;2022-08-01T11:16:28;25.60;86.80
22544;DHT22;11438;52.044;8.716;2022-08-01T11:18:54;25.60;86.60
22544;DHT22;11438;52.044;8.716;2022-08-01T11:21:20;25.70;86.30
22544;DHT22;11438;52.044;8.716;2022-08-01T11:23:50;25.80;87.00
22544;DHT22;11438;52.044;8.716;2022-08-01T11:26:18;25.80;86.60
22544;DHT22;11438;52.044;8.716;2022-08-01T11:28:46;25.90;86.50
22544;DHT22;11438;52.044;8.716;2022-08-01T11:31:32;25.90;86.20
22544;DHT22;11438;52.044;8.716;2022-08-01T11:33:58;25.90;86.00
22544;DHT22;11438;52.044;8.716;2022-08-01T11:36:24;26.00;85.90
22544;DHT22;11438;52.044;8.716;2022-08-01T11:39:10;26.00;85.50
22544;DHT22;11438;52.044;8.716;2022-08-01T11:41:36;26.00;85.40
22544;DHT22;11438;52.044;8.716;2022-08-01T11:44:14;26.10;85.10
22544;DHT22;11438;52.044;8.716;2022-08-01T11:46:49;26.00;84.50
22544;DHT22;11438;52.044;8.716;2022-08-01T11:54:35;26.00;83.60
22544;DHT22;11438;52.044;8.716;2022-08-01T11:57:07;26.00;83.60
22544;DHT22;11438;52.044;8.716;2022-08-01T11:59:44;26.00;83.20
22544;DHT22;11438;52.044;8.716;2022-08-01T12:02:25;26.00;83.90
22544;DHT22;11438;52.044;8.716;2022-08-01T12:04:57;26.00;83.30
22544;DHT22;11438;52.044;8.716;2022-08-01T12:07:25;25.90;83.20
22544;DHT22;11438;52.044;8.716;2022-08-01T12:10:07;26.00;83.40
22544;DHT22;11438;52.044;8.716;2022-08-01T12:12:34;25.90;82.70
22544;DHT22;11438;52.044;8.716;2022-08-01T12:15:07;26.00;82.50
22544;DHT22;11438;52.044;8.716;2022-08-01T12:17:39;26.00;83.30
22544;DHT22;11438;52.044;8.716;2022-08-01T12:20:20;25.90;84.10
22544;DHT22;11438;52.044;8.716;2022-08-01T12:22:46;25.90;83.90
22544;DHT22;11438;52.044;8.716;2022-08-01T12:25:17;26.00;83.30
22544;DHT22;11438;52.044;8.716;2022-08-01T12:27:44;26.00;83.60
22544;DHT22;11438;52.044;8.716;2022-08-01T12:30:15;26.00;83.70
22544;DHT22;11438;52.044;8.716;2022-08-01T12:32:44;26.00;83.00
22544;DHT22;11438;52.044;8.716;2022-08-01T12:35:14;26.00;83.60
22544;DHT22;11438;52.044;8.716;2022-08-01T12:37:46;26.00;82.90
22544;DHT22;11438;52.044;8.716;2022-08-01T12:40:22;26.00;82.50
22544;DHT22;11438;52.044;8.716;2022-08-01T12:42:57;25.90;82.70
22544;DHT22;11438;52.044;8.716;2022-08-01T12:45:27;25.90;83.00
22544;DHT22;11438;52.044;8.716;2022-08-01T12:47:54;25.90;82.80
22544;DHT22;11438;52.044;8.716;2022-08-01T12:50:22;25.90;82.50
22544;DHT22;11438;52.044;8.716;2022-08-01T12:52:49;25.80;82.80
22544;DHT22;11438;52.044;8.716;2022-08-01T12:55:17;25.80;83.10
22544;DHT22;11438;52.044;8.716;2022-08-01T12:57:45;25.70;82.80
22544;DHT22;11438;52.044;8.716;2022-08-01T13:02:47;25.60;82.50
22544;DHT22;11438;52.044;8.716;2022-08-01T13:05:15;25.60;83.20
22544;DHT22;11438;52.044;8.716;2022-08-01T13:10:09;25.50;84.10
22544;DHT22;11438;52.044;8.716;2022-08-01T13:12:35;25.50;85.20
22544;DHT22;11438;52.044;8.716;2022-08-01T13:15:20;25.50;86.50
22544;DHT22;11438;52.044;8.716;2022-08-01T13:17:45;25.50;85.50
22544;DHT22;11438;52.044;8.716;2022-08-01T13:20:24;25.50;84.90
22544;DHT22;11438;52.044;8.716;2022-08-01T13:22:50;25.60;85.00
22544;DHT22;11438;52.044;8.716;2022-08-01T13:25:18;25.60;85.00
22544;DHT22;11438;52.044;8.716;2022-08-01T13:27:44;25.70;84.70
22544;DHT22;11438;52.044;8.716;2022-08-01T13:30:18;25.70;85.00
22544;DHT22;11438;52.044;8.716;2022-08-01T13:32:59;25.70;84.80
22544;DHT22;11438;52.044;8.716;2022-08-01T13:35:25;25.80;85.00
22544;DHT22;11438;52.044;8.716;2022-08-01T13:37:52;25.80;83.80
22544;DHT22;11438;52.044;8.716;2022-08-01T13:40:26;25.90;83.70
22544;DHT22;11438;52.044;8.716;2022-08-01T13:42:52;25.90;83.60
22544;DHT22;11438;52.044;8.716;2022-08-01T13:45:19;26.00;83.80
22544;DHT22;11438;52.044;8.716;2022-08-01T13:47:45;26.00;83.40
22544;DHT22;11438;52.044;8.716;2022-08-01T13:50:11;26.00;83.10
22544;DHT22;11438;52.044;8.716;2022-08-01T13:52:36;26.10;83.40
22544;DHT22;11438;52.044;8.716;2022-08-01T13:55:02;26.20;83.10
22544;DHT22;11438;52.044;8.716;2022-08-01T13:57:28;26.20;82.70
22544;DHT22;11438;52.044;8.716;2022-08-01T13:59:54;26.20;81.40
22544;DHT22;11438;52.044;8.716;2022-08-01T14:02:20;26.20;82.10
22544;DHT22;11438;52.044;8.716;2022-08-01T14:04:46;26.20;82.20
22544;DHT22;11438;52.044;8.716;2022-08-01T14:07:12;26.30;81.40
22544;DHT22;11438;52.044;8.716;2022-08-01T14:09:37;26.30;81.60
22544;DHT22;11438;52.044;8.716;2022-08-01T14:12:03;26.30;80.60
22544;DHT22;11438;52.044;8.716;2022-08-01T14:14:29;26.30;81.50
22544;DHT22;11438;52.044;8.716;2022-08-01T14:16:55;26.30;81.30
22544;DHT22;11438;52.044;8.716;2022-08-01T14:19:21;26.30;80.40
22544;DHT22;11438;52.044;8.716;2022-08-01T14:21:46;26.30;79.80
22544;DHT22;11438;52.044;8.716;2022-08-01T14:24:12;26.30;79.50
22544;DHT22;11438;52.044;8.716;2022-08-01T14:26:37;26.30;80.20
22544;DHT22;11438;52.044;8.716;2022-08-01T14:29:03;26.30;79.30
22544;DHT22;11438;52.044;8.716;2022-08-01T14:31:28;26.30;80.30
22544;DHT22;11438;52.044;8.716;2022-08-01T14:33:55;26.30;79.70
22544;DHT22;11438;52.044;8.716;2022-08-01T14:36:20;26.30;78.30
22544;DHT22;11438;52.044;8.716;2022-08-01T14:38:46;26.30;78.60
22544;DHT22;11438;52.044;8.716;2022-08-01T14:41:11;26.30;79.50
22544;DHT22;11438;52.044;8.716;2022-08-01T14:43:37;26.30;77.60
22544;DHT22;11438;52.044;8.716;2022-08-01T14:46:03;26.40;78.80
22544;DHT22;11438;52.044;8.716;2022-08-01T14:48:29;26.40;79.00
22544;DHT22;11438;52.044;8.716;2022-08-01T14:50:54;26.40;78.40
22544;DHT22;11438;52.044;8.716;2022-08-01T14:53:20;26.50;78.00
22544;DHT22;11438;52.044;8.716;2022-08-01T14:55:46;26.50;77.20
22544;DHT22;11438;52.044;8.716;2022-08-01T14:58:11;26.50;77.80
22544;DHT22;11438;52.044;8.716;2022-08-01T15:00:37;26.60;76.80
22544;DHT22;11438;52.044;8.716;2022-08-01T15:03:02;26.60;77.20
22544;DHT22;11438;52.044;8.716;2022-08-01T15:05:28;26.60;77.00
22544;DHT22;11438;52.044;8.716;2022-08-01T15:07:54;26.60;77.40
22544;DHT22;11438;52.044;8.716;2022-08-01T15:10:20;26.60;77.10
22544;DHT22;11438;52.044;8.716;2022-08-01T15:12:46;26.60;77.00
22544;DHT22;11438;52.044;8.716;2022-08-01T15:15:12;26.60;77.80
22544;DHT22;11438;52.044;8.716;2022-08-01T15:17:37;26.70;77.20
22544;DHT22;11438;52.044;8.716;2022-08-01T15:20:07;26.70;77.20
22544;DHT22;11438;52.044;8.716;2022-08-01T15:22:33;26.70;77.80
22544;DHT22;11438;52.044;8.716;2022-08-01T15:25:00;26.70;76.30
22544;DHT22;11438;52.044;8.716;2022-08-01T15:27:27;26.70;76.20
22544;DHT22;11438;52.044;8.716;2022-08-01T15:29:54;26.70;75.80
22544;DHT22;11438;52.044;8.716;2022-08-01T15:32:20;26.80;75.70
22544;DHT22;11438;52.044;8.716;2022-08-01T15:34:46;26.80;75.40
22544;DHT22;11438;52.044;8.716;2022-08-01T15:37:12;26.80;75.70
22544;DHT22;11438;52.044;8.716;2022-08-01T15:39:39;26.80;75.70
22544;DHT22;11438;52.044;8.716;2022-08-01T15:42:10;26.80;77.10
22544;DHT22;11438;52.044;8.716;2022-08-01T15:44:35;26.80;75.10
22544;DHT22;11438;52.044;8.716;2022-08-01T15:47:02;26.80;75.90
22544;DHT22;11438;52.044;8.716;2022-08-01T15:49:28;26.80;75.50
22544;DHT22;11438;52.044;8.716;2022-08-01T15:51:53;26.80;75.80
22544;DHT22;11438;52.044;8.716;2022-08-01T15:54:19;26.80;75.80
22544;DHT22;11438;52.044;8.716;2022-08-01T15:56:44;26.80;75.00
22544;DHT22;11438;52.044;8.716;2022-08-01T15:59:10;26.90;74.70
22544;DHT22;11438;52.044;8.716;2022-08-01T16:01:36;26.90;75.90
22544;DHT22;11438;52.044;8.716;2022-08-01T16:04:03;26.90;75.30
22544;DHT22;11438;52.044;8.716;2022-08-01T16:06:29;26.90;75.30
22544;DHT22;11438;52.044;8.716;2022-08-01T16:08:55;26.90;75.00
22544;DHT22;11438;52.044;8.716;2022-08-01T16:11:21;26.90;75.00
22544;DHT22;11438;52.044;8.716;2022-08-01T16:13:48;26.90;74.20